Terminal Aerodrome Forecast
Issued by NWS

Home | Current Version | Previous Version | Graphics & Text | Print | Product List | Glossary On
Versions: 1 2 3 4 5 6 7 8 9 10 11 12 13 14 15 16 17 18
000
FTUS43 KABR 302100 AAA
TAFATY
TAF AMD
KATY 302120Z 3021/3118 36018G26KT P6SM OVC015
     FM310000 36010KT P6SM OVC015
     FM310800 VRB06KT P6SM SKC
     FM311600 14012KT P6SM SKC=

USA.gov is the U.S. government's official web portal to all federal, state and local government web resources and services.